Time;durP1;ratioP1;P1;durP2;ratioP2;P2;SDS_P1;SDS_P2;PMS_P1;PMS_P2;Temp;Humidity;BMP_temperature;BMP_pressure;BME280_temperature;BME280_humidity;BME280_pressure;Samples;Min_cycle;Max_cycle;Signal;HPM_P1;HPM_P2
2021/09/16 00:01:33;;;;;;;6.38;1.42;;;16.10;99.90;;;;;;4859320;29;20051;-74
2021/09/16 00:03:59;;;;;;;8.73;1.40;;;16.10;99.90;;;;;;4842706;29;20046;-74
2021/09/16 00:06:24;;;;;;;5.75;1.50;;;16.00;99.90;;;;;;4860237;29;20064;-74
2021/09/16 00:08:50;;;;;;;7.70;1.58;;;16.00;99.90;;;;;;4856837;29;20101;-74
2021/09/16 00:11:16;;;;;;;4.55;1.27;;;16.00;99.90;;;;;;4844162;29;20045;-74
2021/09/16 00:13:41;;;;;;;6.75;1.60;;;16.00;99.90;;;;;;4856424;29;20046;-74
2021/09/16 00:16:07;;;;;;;5.95;1.17;;;16.00;99.90;;;;;;4835462;29;20052;-74
2021/09/16 00:18:33;;;;;;;6.47;1.52;;;16.00;99.90;;;;;;4857088;29;20037;-74
2021/09/16 00:20:58;;;;;;;5.38;1.17;;;15.90;99.90;;;;;;4858896;29;20510;-75
2021/09/16 00:23:24;;;;;;;12.70;1.52;;;15.90;99.90;;;;;;4859611;29;20098;-75
2021/09/16 00:25:50;;;;;;;6.82;1.58;;;15.90;99.90;;;;;;4859158;29;20053;-74
2021/09/16 00:28:15;;;;;;;5.85;1.40;;;15.90;99.90;;;;;;4858216;29;20042;-74
2021/09/16 00:30:41;;;;;;;7.88;1.17;;;15.90;99.90;;;;;;4857707;29;20042;-74
2021/09/16 00:33:07;;;;;;;7.15;1.60;;;15.90;99.90;;;;;;4856535;29;20394;-74
2021/09/16 00:35:33;;;;;;;8.27;1.20;;;15.80;99.90;;;;;;4859000;29;20038;-74
2021/09/16 00:37:59;;;;;;;11.05;1.38;;;15.80;99.90;;;;;;4828260;29;20042;-74
2021/09/16 00:40:25;;;;;;;5.47;1.50;;;15.80;99.90;;;;;;4843717;29;20056;-75
2021/09/16 00:42:50;;;;;;;7.35;1.30;;;15.80;99.90;;;;;;4857748;29;20079;-75
2021/09/16 00:45:16;;;;;;;7.10;1.23;;;15.70;99.90;;;;;;4828244;29;20046;-75
2021/09/16 00:47:46;;;;;;;5.47;1.15;;;15.80;99.90;;;;;;4859144;29;20049;-75
2021/09/16 00:50:16;;;;;;;7.65;1.25;;;15.80;99.90;;;;;;4859187;29;20033;-75
2021/09/16 00:52:42;;;;;;;9.32;1.67;;;15.70;99.90;;;;;;4858280;29;20041;-75
2021/09/16 00:55:10;;;;;;;5.93;1.27;;;15.70;99.90;;;;;;4859638;29;20097;-75
2021/09/16 00:57:38;;;;;;;3.97;1.20;;;15.70;99.90;;;;;;4854400;29;20106;-74
2021/09/16 01:00:07;;;;;;;6.05;1.23;;;15.70;99.90;;;;;;4857616;29;20064;-75
2021/09/16 01:02:34;;;;;;;8.20;1.38;;;15.70;99.90;;;;;;4855940;29;20051;-75
2021/09/16 01:05:00;;;;;;;4.07;1.55;;;15.70;99.90;;;;;;4858558;29;20050;-75
2021/09/16 01:07:25;;;;;;;5.60;1.30;;;15.80;99.90;;;;;;4857988;29;20482;-74
2021/09/16 01:09:51;;;;;;;6.72;1.50;;;15.70;99.90;;;;;;4858679;29;20041;-75
2021/09/16 01:12:17;;;;;;;9.13;1.58;;;15.80;99.90;;;;;;4845717;29;20447;-74
2021/09/16 01:14:44;;;;;;;8.73;1.27;;;15.80;99.90;;;;;;4847018;29;20110;-74
2021/09/16 01:17:10;;;;;;;8.02;1.90;;;15.80;99.90;;;;;;4860539;29;20037;-75
2021/09/16 01:19:35;;;;;;;8.98;1.73;;;15.70;99.90;;;;;;4861953;29;20053;-74
2021/09/16 01:22:01;;;;;;;8.70;1.42;;;15.80;99.90;;;;;;4854717;29;20052;-75
2021/09/16 01:24:27;;;;;;;15.65;1.73;;;15.80;99.90;;;;;;4833475;29;20042;-75
2021/09/16 01:26:53;;;;;;;4.95;1.23;;;15.70;99.90;;;;;;4856501;29;20041;-75
2021/09/16 01:29:18;;;;;;;6.15;1.30;;;15.70;99.90;;;;;;4832337;29;20066;-75
2021/09/16 01:31:47;;;;;;;4.63;1.10;;;15.70;99.90;;;;;;4839322;29;20049;-75
2021/09/16 01:34:14;;;;;;;6.53;1.67;;;15.70;99.90;;;;;;4860766;29;20518;-75
2021/09/16 01:36:43;;;;;;;12.13;2.10;;;15.70;99.90;;;;;;4859648;29;20058;-74
2021/09/16 01:39:11;;;;;;;5.10;1.77;;;15.70;99.90;;;;;;4853143;29;20053;-74
2021/09/16 01:41:37;;;;;;;7.07;1.58;;;15.70;99.90;;;;;;4857445;29;20049;-75
2021/09/16 01:44:03;;;;;;;5.63;1.23;;;15.70;99.90;;;;;;4860442;29;20041;-75
2021/09/16 01:46:29;;;;;;;11.82;1.85;;;15.70;99.90;;;;;;4860353;29;20125;-74
2021/09/16 01:48:58;;;;;;;8.95;1.38;;;15.70;99.90;;;;;;4861555;29;20444;-74
2021/09/16 01:51:23;;;;;;;9.65;1.60;;;15.70;99.90;;;;;;4862661;29;20068;-74
2021/09/16 01:53:49;;;;;;;6.97;1.65;;;15.60;99.90;;;;;;4859716;29;20435;-75
2021/09/16 01:56:15;;;;;;;5.93;1.42;;;15.60;99.90;;;;;;4844291;29;20125;-74
2021/09/16 01:58:41;;;;;;;10.63;1.75;;;15.60;99.90;;;;;;4845804;29;20049;-75
2021/09/16 02:01:07;;;;;;;6.95;1.70;;;15.60;99.90;;;;;;4860542;29;20419;-75
2021/09/16 02:03:33;;;;;;;6.00;1.70;;;15.60;99.90;;;;;;4862189;29;20042;-75
2021/09/16 02:05:58;;;;;;;11.52;2.00;;;15.60;99.90;;;;;;4860051;29;20056;-75
2021/09/16 02:08:27;;;;;;;12.02;1.92;;;15.60;99.90;;;;;;4860979;29;20049;-75
2021/09/16 02:10:53;;;;;;;17.38;2.53;;;15.50;99.90;;;;;;4861361;29;20045;-74
2021/09/16 02:13:19;;;;;;;13.18;2.33;;;15.50;99.90;;;;;;4845805;29;20116;-74
2021/09/16 02:15:45;;;;;;;11.80;2.00;;;15.40;99.90;;;;;;4861047;29;20054;-74
2021/09/16 02:18:11;;;;;;;11.55;2.17;;;15.50;99.90;;;;;;4859745;29;20037;-74
2021/09/16 02:20:36;;;;;;;9.50;1.90;;;15.40;99.90;;;;;;4851269;29;20037;-74
2021/09/16 02:23:02;;;;;;;8.60;2.10;;;15.40;99.90;;;;;;4860238;29;20550;-74
2021/09/16 02:25:28;;;;;;;8.05;2.15;;;15.40;99.90;;;;;;4860897;29;20034;-74
2021/09/16 02:27:54;;;;;;;9.30;2.30;;;15.30;99.90;;;;;;4862056;29;20049;-75
2021/09/16 02:30:19;;;;;;;7.68;1.80;;;15.70;99.90;;;;;;4862065;29;20121;-74
2021/09/16 02:32:45;;;;;;;13.52;2.95;;;15.40;99.90;;;;;;4854508;29;20439;-74
2021/09/16 02:35:12;;;;;;;7.85;2.47;;;16.30;99.90;;;;;;4859820;29;20041;-75
2021/09/16 02:37:39;;;;;;;9.82;2.28;;;15.50;99.90;;;;;;4859135;29;20498;-75
2021/09/16 02:40:10;;;;;;;7.50;2.10;;;15.40;99.90;;;;;;4860041;29;20398;-74
2021/09/16 02:42:37;;;;;;;8.88;2.47;;;15.40;99.90;;;;;;4858790;29;20052;-74
2021/09/16 02:45:04;;;;;;;13.02;2.83;;;15.50;99.90;;;;;;4855923;29;20050;-75
2021/09/16 02:47:31;;;;;;;8.65;2.72;;;15.50;99.90;;;;;;4845539;29;20045;-75
2021/09/16 02:49:57;;;;;;;14.32;2.65;;;15.50;99.90;;;;;;4862019;29;20097;-75
2021/09/16 02:52:22;;;;;;;21.75;3.03;;;15.50;99.90;;;;;;4844051;29;20049;-75
2021/09/16 02:54:48;;;;;;;7.78;3.05;;;15.50;99.90;;;;;;4861057;29;20455;-75
2021/09/16 02:57:14;;;;;;;10.27;3.15;;;15.50;99.90;;;;;;4855930;29;20049;-74
2021/09/16 02:59:39;;;;;;;8.35;3.97;;;15.50;99.90;;;;;;4850661;29;20057;-74
2021/09/16 03:02:05;;;;;;;13.38;3.58;;;15.50;99.90;;;;;;4841757;29;20468;-74
2021/09/16 03:04:31;;;;;;;8.68;3.97;;;15.60;99.90;;;;;;4843193;29;20049;-74
2021/09/16 03:06:56;;;;;;;12.98;4.35;;;15.60;99.90;;;;;;4860539;29;20486;-75
2021/09/16 03:09:23;;;;;;;6.97;3.47;;;15.60;99.90;;;;;;4832739;29;20502;-75
2021/09/16 03:11:50;;;;;;;11.90;4.07;;;15.60;99.90;;;;;;4861513;29;20097;-75
2021/09/16 03:14:15;;;;;;;7.82;3.78;;;15.70;99.90;;;;;;4843671;29;20081;-75
2021/09/16 03:16:41;;;;;;;11.40;4.38;;;15.70;99.90;;;;;;4858932;29;20088;-75
2021/09/16 03:19:07;;;;;;;10.05;4.35;;;15.70;99.90;;;;;;4860011;29;20105;-75
2021/09/16 03:21:33;;;;;;;12.70;4.07;;;15.70;99.90;;;;;;4859424;29;20034;-75
2021/09/16 03:23:59;;;;;;;9.32;4.45;;;15.70;99.90;;;;;;4860055;29;20408;-75
2021/09/16 03:26:24;;;;;;;10.95;4.85;;;15.70;99.90;;;;;;4853762;29;20038;-75
2021/09/16 03:28:50;;;;;;;10.75;4.80;;;15.70;99.90;;;;;;4849318;29;20041;-75
2021/09/16 03:31:16;;;;;;;12.25;5.07;;;15.70;99.90;;;;;;4849435;29;20053;-74
2021/09/16 03:33:42;;;;;;;9.88;4.72;;;15.70;99.90;;;;;;4849640;29;20037;-74
2021/09/16 03:36:07;;;;;;;9.10;4.80;;;15.70;99.90;;;;;;4858219;29;20128;-74
2021/09/16 03:38:33;;;;;;;14.20;4.72;;;15.70;99.90;;;;;;4842642;29;20041;-74
2021/09/16 03:40:59;;;;;;;14.82;4.90;;;15.70;99.90;;;;;;4859712;29;20050;-74
2021/09/16 03:43:25;;;;;;;14.57;4.95;;;15.70;99.90;;;;;;4858688;29;20521;-74
2021/09/16 03:45:51;;;;;;;14.20;5.50;;;15.70;99.90;;;;;;4859626;29;20041;-74
2021/09/16 03:48:16;;;;;;;10.98;5.07;;;15.70;99.90;;;;;;4856555;29;20048;-74
2021/09/16 03:50:42;;;;;;;11.13;5.13;;;15.60;99.90;;;;;;4859676;29;20064;-74
2021/09/16 03:53:08;;;;;;;13.60;5.70;;;15.60;99.90;;;;;;4859815;29;20053;-74
2021/09/16 03:55:34;;;;;;;10.32;5.35;;;15.60;99.90;;;;;;4860200;29;20042;-74
2021/09/16 03:57:59;;;;;;;12.80;6.22;;;15.60;99.90;;;;;;4848221;29;20042;-75
2021/09/16 04:00:25;;;;;;;12.20;5.47;;;15.60;99.90;;;;;;4858990;29;20054;-74
2021/09/16 04:02:51;;;;;;;13.38;6.10;;;15.60;99.90;;;;;;4846145;29;20042;-75
2021/09/16 04:05:17;;;;;;;11.07;6.00;;;15.60;99.90;;;;;;4852999;29;20402;-75
2021/09/16 04:07:43;;;;;;;12.63;5.63;;;15.60;99.90;;;;;;4858582;29;20041;-75
2021/09/16 04:10:09;;;;;;;18.10;5.72;;;15.60;99.90;;;;;;4854046;29;20042;-75
2021/09/16 04:12:36;;;;;;;11.40;5.40;;;15.60;99.90;;;;;;4838990;29;20084;-75
2021/09/16 04:15:03;;;;;;;16.42;5.88;;;15.60;99.90;;;;;;4858059;29;20061;-74
2021/09/16 04:17:28;;;;;;;14.75;5.47;;;15.60;99.90;;;;;;4856144;29;20571;-74
2021/09/16 04:19:54;;;;;;;16.30;5.85;;;15.60;99.90;;;;;;4859032;29;20049;-74
2021/09/16 04:22:20;;;;;;;18.67;5.70;;;15.60;99.90;;;;;;4856937;29;20042;-74
2021/09/16 04:24:46;;;;;;;13.85;5.70;;;15.60;99.90;;;;;;4850115;29;20038;-74
2021/09/16 04:27:13;;;;;;;12.73;6.10;;;15.70;99.90;;;;;;4833860;29;20088;-74
2021/09/16 04:29:40;;;;;;;18.35;6.72;;;15.70;99.90;;;;;;4854149;29;20038;-74
2021/09/16 04:32:06;;;;;;;16.05;7.07;;;15.70;99.90;;;;;;4858325;29;20080;-74
2021/09/16 04:34:32;;;;;;;15.88;6.75;;;15.70;99.90;;;;;;4855775;29;20101;-74
2021/09/16 04:36:57;;;;;;;15.88;6.75;;;15.80;99.90;;;;;;4859571;29;20046;-74
2021/09/16 04:39:23;;;;;;;17.92;7.25;;;15.70;99.90;;;;;;4858916;29;20049;-74
2021/09/16 04:41:49;;;;;;;15.15;6.95;;;15.70;99.90;;;;;;4852121;29;20146;-74
2021/09/16 04:44:15;;;;;;;16.27;6.07;;;15.70;99.90;;;;;;4859171;29;20053;-74
2021/09/16 04:46:40;;;;;;;13.30;7.00;;;15.70;99.90;;;;;;4858741;29;20064;-74
2021/09/16 04:49:06;;;;;;;17.20;6.63;;;15.70;99.90;;;;;;4857275;29;20174;-75
2021/09/16 04:51:32;;;;;;;16.63;6.75;;;15.70;99.90;;;;;;4863187;29;20117;-75
2021/09/16 04:53:58;;;;;;;16.98;7.05;;;15.80;99.90;;;;;;4862007;29;20049;-75
2021/09/16 04:56:24;;;;;;;21.08;8.02;;;15.80;99.90;;;;;;4856303;29;20056;-75
2021/09/16 04:58:50;;;;;;;16.85;7.75;;;15.80;99.90;;;;;;4855020;29;20057;-75
2021/09/16 05:01:16;;;;;;;22.90;8.25;;;15.80;99.90;;;;;;4860651;29;20066;-74
2021/09/16 05:03:43;;;;;;;13.35;6.93;;;15.90;99.90;;;;;;4856186;29;20049;-74
2021/09/16 05:06:09;;;;;;;18.65;7.43;;;15.80;99.90;;;;;;4860741;29;20054;-74
2021/09/16 05:08:35;;;;;;;15.13;6.55;;;15.80;99.90;;;;;;4862318;29;20514;-74
2021/09/16 05:11:01;;;;;;;15.13;6.50;;;15.80;99.90;;;;;;4859814;29;20073;-75
2021/09/16 05:13:30;;;;;;;19.20;6.45;;;15.80;99.90;;;;;;4856138;29;20041;-74
2021/09/16 05:15:55;;;;;;;15.73;6.03;;;15.80;99.90;;;;;;4858022;29;20078;-74
2021/09/16 05:18:21;;;;;;;17.80;6.43;;;15.80;99.90;;;;;;4861061;29;20490;-74
2021/09/16 05:20:47;;;;;;;15.52;6.20;;;15.80;99.90;;;;;;4855952;29;20069;-74
2021/09/16 05:23:13;;;;;;;16.65;6.28;;;15.80;99.90;;;;;;4843669;29;20117;-74
2021/09/16 05:25:39;;;;;;;16.60;6.22;;;15.80;99.90;;;;;;4861482;29;20112;-74
2021/09/16 05:28:05;;;;;;;14.85;5.95;;;15.80;99.90;;;;;;4860837;29;20050;-74
2021/09/16 05:30:31;;;;;;;24.10;6.97;;;15.80;99.90;;;;;;4859602;29;20101;-75
2021/09/16 05:32:57;;;;;;;20.95;6.70;;;15.80;99.90;;;;;;4850879;29;20042;-75
2021/09/16 05:35:22;;;;;;;17.65;6.47;;;15.80;99.90;;;;;;4860569;29;20120;-75
2021/09/16 05:37:48;;;;;;;15.38;6.63;;;15.90;99.90;;;;;;4859278;29;20045;-74
2021/09/16 05:40:14;;;;;;;17.98;7.13;;;15.90;99.90;;;;;;4861558;29;20048;-75
2021/09/16 05:42:41;;;;;;;28.48;7.55;;;15.90;99.90;;;;;;4859056;29;20517;-74
2021/09/16 05:45:08;;;;;;;16.98;6.20;;;15.90;99.90;;;;;;4858275;29;20101;-74
2021/09/16 05:47:34;;;;;;;16.98;5.63;;;15.90;99.90;;;;;;4850440;29;20085;-75
2021/09/16 05:50:00;;;;;;;14.80;4.95;;;15.90;99.90;;;;;;4835660;29;20046;-75
2021/09/16 05:52:26;;;;;;;20.70;5.35;;;15.90;99.90;;;;;;4850695;29;20053;-75
2021/09/16 05:54:51;;;;;;;16.17;5.85;;;15.90;99.90;;;;;;4860195;29;20064;-75
2021/09/16 05:57:17;;;;;;;14.52;4.90;;;15.90;99.90;;;;;;4841628;29;20406;-74
2021/09/16 05:59:43;;;;;;;12.37;4.87;;;15.90;99.90;;;;;;4798780;29;1261572;-74
2021/09/16 06:02:09;;;;;;;16.60;5.72;;;15.90;99.90;;;;;;4844582;29;20052;-75
2021/09/16 06:04:35;;;;;;;15.85;4.75;;;15.90;99.90;;;;;;4856144;29;20049;-75
2021/09/16 06:07:04;;;;;;;17.95;5.20;;;15.90;99.90;;;;;;4860687;29;20124;-74
2021/09/16 06:09:31;;;;;;;21.25;5.28;;;15.90;99.90;;;;;;4844898;29;20502;-74
2021/09/16 06:11:59;;;;;;;13.50;4.90;;;15.90;99.90;;;;;;4862682;29;20052;-74
2021/09/16 06:14:25;;;;;;;15.57;5.18;;;15.90;99.90;;;;;;4861145;29;20050;-74
2021/09/16 06:16:52;;;;;;;16.17;4.95;;;15.90;99.90;;;;;;4829316;29;20060;-75
2021/09/16 06:19:18;;;;;;;16.17;5.10;;;15.90;99.90;;;;;;4852612;29;20077;-75
2021/09/16 06:21:44;;;;;;;18.45;5.00;;;15.90;99.90;;;;;;4858463;29;20520;-76
2021/09/16 06:24:10;;;;;;;12.63;4.93;;;15.90;99.90;;;;;;4848026;29;20041;-75
2021/09/16 06:26:36;;;;;;;18.73;5.00;;;15.90;99.90;;;;;;4857906;29;20485;-75
2021/09/16 06:29:02;;;;;;;14.38;4.35;;;16.00;99.90;;;;;;4862172;29;20049;-75
2021/09/16 06:31:28;;;;;;;15.65;5.40;;;16.00;99.90;;;;;;4860749;29;20048;-75
2021/09/16 06:33:54;;;;;;;12.30;4.63;;;16.00;99.90;;;;;;4859448;29;20092;-76
2021/09/16 06:36:20;;;;;;;15.63;5.68;;;16.00;99.90;;;;;;4856529;29;20106;-73
2021/09/16 06:38:45;;;;;;;12.82;4.45;;;16.00;99.90;;;;;;4861910;29;20049;-73
2021/09/16 06:41:12;;;;;;;14.65;4.45;;;16.00;99.90;;;;;;4857011;29;20038;-73
2021/09/16 06:43:37;;;;;;;17.00;5.13;;;16.10;99.90;;;;;;4860849;29;20045;-75
2021/09/16 06:46:03;;;;;;;21.77;4.70;;;16.00;99.90;;;;;;4855377;29;20038;-76
2021/09/16 06:48:29;;;;;;;16.20;4.95;;;16.10;99.90;;;;;;4856958;29;20042;-75
2021/09/16 06:50:56;;;;;;;16.45;4.97;;;16.10;99.90;;;;;;4860059;29;20049;-76
2021/09/16 06:53:22;;;;;;;15.30;4.88;;;16.10;99.90;;;;;;4856251;29;20049;-75
2021/09/16 06:55:48;;;;;;;21.50;5.50;;;16.10;99.90;;;;;;4858701;29;20049;-76
2021/09/16 06:58:14;;;;;;;21.83;4.85;;;16.10;99.90;;;;;;4840511;29;20046;-75
2021/09/16 07:00:40;;;;;;;18.58;5.22;;;16.00;99.90;;;;;;4859289;29;20053;-75
2021/09/16 07:03:06;;;;;;;15.13;4.50;;;16.10;99.90;;;;;;4856116;29;20041;-76
2021/09/16 07:05:32;;;;;;;15.23;5.03;;;16.10;99.90;;;;;;4857784;29;20045;-76
2021/09/16 07:07:58;;;;;;;18.45;4.80;;;16.10;99.90;;;;;;4859740;29;20044;-83
2021/09/16 07:10:24;;;;;;;13.10;4.22;;;16.00;99.90;;;;;;4843697;29;20053;-78
2021/09/16 07:12:50;;;;;;;11.85;4.55;;;16.10;99.90;;;;;;4858850;29;20077;-77
2021/09/16 07:15:17;;;;;;;17.90;5.05;;;16.00;99.90;;;;;;4857736;29;20076;-78
2021/09/16 07:17:43;;;;;;;16.30;4.95;;;16.00;99.90;;;;;;4859407;29;20457;-77
2021/09/16 07:20:09;;;;;;;15.32;5.20;;;16.10;99.90;;;;;;4858537;29;20133;-78
2021/09/16 07:22:35;;;;;;;15.90;4.88;;;16.10;99.90;;;;;;4859627;29;20053;-77
2021/09/16 07:25:01;;;;;;;13.32;4.65;;;16.00;99.90;;;;;;4860495;29;20053;-80
2021/09/16 07:27:27;;;;;;;16.85;5.10;;;16.00;99.90;;;;;;4837694;29;20045;-81
2021/09/16 07:29:53;;;;;;;12.38;4.32;;;16.00;99.90;;;;;;4809070;29;20395;-81
2021/09/16 07:32:18;;;;;;;15.77;4.25;;;16.00;99.90;;;;;;4857610;29;20173;-80
2021/09/16 07:34:44;;;;;;;18.77;4.88;;;16.00;99.90;;;;;;4840772;29;20049;-81
2021/09/16 07:37:12;;;;;;;18.90;4.95;;;16.00;99.90;;;;;;4855538;29;20042;-83
2021/09/16 07:39:38;;;;;;;16.95;4.90;;;15.90;99.90;;;;;;4857045;29;20173;-85
2021/09/16 07:42:04;;;;;;;14.65;4.85;;;16.00;99.90;;;;;;4857405;29;20920;-84
2021/09/16 07:44:30;;;;;;;13.93;5.05;;;16.00;99.90;;;;;;4857378;29;20082;-87
2021/09/16 07:46:56;;;;;;;12.95;4.85;;;16.00;99.90;;;;;;4841021;29;20483;-81
2021/09/16 07:49:22;;;;;;;16.20;4.63;;;16.00;99.90;;;;;;4856204;29;20057;-82
2021/09/16 07:51:48;;;;;;;13.85;4.78;;;16.00;99.90;;;;;;4856561;29;20041;-82
2021/09/16 07:54:14;;;;;;;20.10;5.50;;;16.10;99.90;;;;;;4839678;29;20529;-82
2021/09/16 07:56:40;;;;;;;19.33;5.72;;;16.10;99.90;;;;;;4858505;29;20037;-84
2021/09/16 07:59:07;;;;;;;19.13;5.43;;;16.20;99.90;;;;;;4839794;29;20072;-84
2021/09/16 08:01:35;;;;;;;16.33;4.75;;;16.20;99.90;;;;;;4841320;29;20498;-81
2021/09/16 08:04:01;;;;;;;13.55;4.88;;;16.20;99.90;;;;;;4854881;29;20117;-81
2021/09/16 08:06:29;;;;;;;14.52;4.13;;;16.40;99.90;;;;;;4841157;29;20438;-81
2021/09/16 08:08:55;;;;;;;18.15;5.47;;;16.30;99.90;;;;;;4840283;29;20040;-81
2021/09/16 08:11:21;;;;;;;16.85;4.85;;;16.30;99.90;;;;;;4854269;29;20033;-82
2021/09/16 08:13:47;;;;;;;19.17;4.80;;;16.40;99.90;;;;;;4840802;29;20041;-81
2021/09/16 08:16:13;;;;;;;13.55;3.83;;;16.40;99.90;;;;;;4838316;29;20052;-81
2021/09/16 08:18:39;;;;;;;22.25;4.63;;;16.40;99.90;;;;;;4840773;29;20050;-81
2021/09/16 08:21:05;;;;;;;17.52;4.40;;;16.30;99.90;;;;;;4854272;29;20051;-81
2021/09/16 08:23:31;;;;;;;11.23;3.78;;;16.50;99.90;;;;;;4856311;29;20053;-81
2021/09/16 08:25:57;;;;;;;13.55;4.20;;;16.50;99.90;;;;;;4825717;29;20048;-81
2021/09/16 08:28:23;;;;;;;9.27;4.28;;;16.50;99.90;;;;;;4838157;29;20060;-81
2021/09/16 08:30:49;;;;;;;16.77;4.20;;;16.50;99.90;;;;;;4822858;29;20132;-85
2021/09/16 08:33:15;;;;;;;15.05;3.67;;;16.50;99.90;;;;;;4838736;29;20133;-84
2021/09/16 08:35:41;;;;;;;17.80;4.68;;;16.60;99.90;;;;;;4855413;29;20057;-85
2021/09/16 08:38:08;;;;;;;17.67;4.53;;;16.60;99.90;;;;;;4856019;29;20041;-84
2021/09/16 08:40:34;;;;;;;17.20;4.10;;;16.60;99.90;;;;;;4840440;29;20061;-85
2021/09/16 08:43:01;;;;;;;14.57;3.80;;;16.60;99.90;;;;;;4857466;29;20113;-84
2021/09/16 08:45:27;;;;;;;17.67;4.13;;;16.60;99.90;;;;;;4825160;29;20042;-83
2021/09/16 08:47:54;;;;;;;17.70;4.45;;;16.50;99.90;;;;;;4855691;29;20684;-84
2021/09/16 08:50:23;;;;;;;16.77;4.07;;;16.60;99.90;;;;;;4840828;29;20431;-85
2021/09/16 08:52:50;;;;;;;18.00;4.47;;;16.70;99.90;;;;;;4840351;29;20220;-85
2021/09/16 08:55:18;;;;;;;15.15;3.53;;;16.60;99.90;;;;;;4857392;29;20045;-84
2021/09/16 08:57:47;;;;;;;14.82;3.72;;;16.70;99.90;;;;;;4855230;29;20140;-78
2021/09/16 09:00:19;;;;;;;19.30;3.65;;;16.70;99.90;;;;;;4851657;29;20419;-81
2021/09/16 09:02:46;;;;;;;17.58;4.60;;;16.70;99.90;;;;;;4854806;29;20551;-81
2021/09/16 09:05:13;;;;;;;12.68;3.78;;;16.70;99.90;;;;;;4840011;29;20045;-81
2021/09/16 09:07:41;;;;;;;19.20;3.33;;;16.70;99.90;;;;;;4855214;29;20045;-81
2021/09/16 09:10:14;;;;;;;16.52;3.95;;;16.80;99.90;;;;;;4856010;29;20053;-81
2021/09/16 09:12:40;;;;;;;20.63;3.42;;;16.70;99.90;;;;;;4856697;29;20056;-81
2021/09/16 09:15:10;;;;;;;10.95;2.78;;;16.80;99.90;;;;;;4855649;29;20075;-81
2021/09/16 09:17:36;;;;;;;10.70;2.88;;;16.80;99.90;;;;;;4857469;29;20054;-81
2021/09/16 09:20:10;;;;;;;18.08;3.33;;;16.90;99.90;;;;;;4854957;29;20108;-81
2021/09/16 09:22:41;;;;;;;14.38;3.53;;;17.20;99.90;;;;;;4855567;29;20495;-81
2021/09/16 09:25:17;;;;;;;11.73;3.00;;;17.00;99.90;;;;;;4855694;29;20046;-80
2021/09/16 09:27:52;;;;;;;14.55;3.10;;;17.10;99.90;;;;;;4856196;29;20061;-80
2021/09/16 09:30:20;;;;;;;9.47;2.43;;;17.10;99.90;;;;;;4838790;29;20045;-80
2021/09/16 09:32:53;;;;;;;11.45;3.13;;;17.10;99.90;;;;;;4857501;29;20050;-81
2021/09/16 09:35:38;;;;;;;6.13;2.70;;;17.10;99.90;;;;;;4858464;29;20092;-80
2021/09/16 09:38:22;;;;;;;14.47;3.10;;;17.10;99.90;;;;;;4843322;29;20109;-81
2021/09/16 09:40:51;;;;;;;10.02;3.00;;;16.90;99.90;;;;;;4843020;29;20301;-79
2021/09/16 09:43:21;;;;;;;13.27;3.15;;;16.70;99.90;;;;;;4858591;29;20057;-80
2021/09/16 09:46:02;;;;;;;15.13;3.05;;;16.60;99.90;;;;;;4858986;29;20110;-80
2021/09/16 09:48:29;;;;;;;14.27;3.28;;;16.50;99.90;;;;;;4858420;29;20125;-80
2021/09/16 09:50:56;;;;;;;10.30;3.40;;;16.40;99.90;;;;;;4859425;29;20049;-80
2021/09/16 09:53:22;;;;;;;7.40;2.50;;;16.40;99.90;;;;;;4858275;29;20057;-79
2021/09/16 09:55:51;;;;;;;7.72;2.80;;;16.30;99.90;;;;;;4858520;29;20038;-79
2021/09/16 09:58:31;;;;;;;10.52;3.15;;;16.20;99.90;;;;;;4859668;29;20109;-81
2021/09/16 10:00:57;;;;;;;7.60;2.60;;;16.20;99.90;;;;;;4858476;29;20470;-82
2021/09/16 10:03:28;;;;;;;8.98;3.20;;;16.20;99.90;;;;;;4858356;29;20053;-81
2021/09/16 10:06:07;;;;;;;10.15;2.90;;;16.20;99.90;;;;;;4857027;29;20041;-80
2021/09/16 10:08:36;;;;;;;10.80;2.55;;;16.20;99.90;;;;;;4844774;29;20432;-80
2021/09/16 10:11:02;;;;;;;13.48;2.85;;;16.20;99.90;;;;;;4842400;29;20041;-79
2021/09/16 10:13:32;;;;;;;12.38;3.00;;;16.20;99.90;;;;;;4842440;29;20065;-79
2021/09/16 10:16:03;;;;;;;9.65;3.08;;;16.40;99.90;;;;;;4842213;29;20068;-80
2021/09/16 10:18:32;;;;;;;7.05;2.67;;;16.20;99.90;;;;;;4840591;29;20049;-80
2021/09/16 10:21:00;;;;;;;8.93;2.88;;;16.30;99.90;;;;;;4856433;29;20060;-84
2021/09/16 10:23:28;;;;;;;8.20;3.15;;;16.30;99.90;;;;;;4826715;29;20056;-81
2021/09/16 10:25:55;;;;;;;5.45;3.08;;;16.40;99.90;;;;;;4858083;29;20069;-79
2021/09/16 10:28:21;;;;;;;6.05;2.15;;;16.50;99.90;;;;;;4855124;29;20442;-80
2021/09/16 10:30:49;;;;;;;7.38;2.42;;;16.50;99.90;;;;;;4841818;29;20068;-79
2021/09/16 10:33:16;;;;;;;10.05;3.30;;;16.60;99.90;;;;;;4856763;29;20106;-80
2021/09/16 10:35:57;;;;;;;10.43;3.00;;;16.60;99.90;;;;;;4857821;29;20544;-80
2021/09/16 10:38:45;;;;;;;10.25;2.92;;;16.70;99.90;;;;;;4842792;29;20455;-81
2021/09/16 10:41:32;;;;;;;12.13;3.63;;;16.70;99.90;;;;;;4857521;29;20490;-79
2021/09/16 10:43:58;;;;;;;13.27;3.03;;;16.80;99.90;;;;;;4840052;29;20089;-80
2021/09/16 10:46:32;;;;;;;11.40;2.92;;;16.90;99.90;;;;;;4840671;29;20064;-79
2021/09/16 10:49:24;;;;;;;11.68;2.75;;;16.90;99.90;;;;;;4840628;29;20534;-80
2021/09/16 10:52:08;;;;;;;11.35;2.95;;;16.90;99.90;;;;;;4856518;29;20042;-83
2021/09/16 10:54:35;;;;;;;10.93;3.45;;;16.90;99.90;;;;;;4841036;29;20041;-82
2021/09/16 10:57:04;;;;;;;12.73;3.60;;;16.90;99.90;;;;;;4856177;29;20049;-83
2021/09/16 10:59:52;;;;;;;8.68;3.00;;;16.80;99.90;;;;;;4840010;29;20156;-83
2021/09/16 11:02:19;;;;;;;11.15;3.10;;;16.70;99.90;;;;;;4842125;29;20049;-83
2021/09/16 11:04:54;;;;;;;9.65;3.40;;;16.70;99.90;;;;;;4858279;29;20113;-83
2021/09/16 11:07:32;;;;;;;11.82;3.03;;;16.60;99.90;;;;;;4841641;29;20131;-83
2021/09/16 11:10:16;;;;;;;12.55;3.45;;;16.60;99.90;;;;;;4856699;29;20053;-83
2021/09/16 11:12:47;;;;;;;11.40;3.65;;;16.50;99.90;;;;;;4855660;29;20169;-83
2021/09/16 11:15:27;;;;;;;12.20;5.78;;;16.50;99.90;;;;;;4856612;29;20110;-81
2021/09/16 11:18:03;;;;;;;16.10;4.28;;;16.50;99.90;;;;;;4856307;29;20190;-81
2021/09/16 11:20:34;;;;;;;15.18;3.88;;;16.50;99.90;;;;;;4841905;29;20061;-81
2021/09/16 11:23:00;;;;;;;9.48;3.13;;;16.50;99.90;;;;;;4841134;29;20057;-83
2021/09/16 11:25:40;;;;;;;11.90;3.15;;;16.60;99.90;;;;;;4857269;29;20046;-83
2021/09/16 11:28:07;;;;;;;14.77;3.22;;;16.60;99.90;;;;;;4838299;29;20053;-83
2021/09/16 11:30:36;;;;;;;9.48;2.80;;;17.20;99.90;;;;;;4856299;29;20041;-83
2021/09/16 11:33:04;;;;;;;12.88;3.30;;;16.70;99.90;;;;;;4825258;29;21379;-83
2021/09/16 11:35:30;;;;;;;13.18;3.55;;;16.80;99.90;;;;;;4856084;29;20199;-83
2021/09/16 11:37:56;;;;;;;11.40;3.40;;;16.80;99.90;;;;;;4855700;29;20132;-81
2021/09/16 11:40:32;;;;;;;11.88;3.47;;;16.90;99.90;;;;;;4840638;29;20041;-81
2021/09/16 11:43:01;;;;;;;9.60;3.00;;;17.00;99.90;;;;;;4856365;29;20064;-81
2021/09/16 11:45:46;;;;;;;12.23;2.90;;;17.10;99.90;;;;;;4856237;29;20971;-83
2021/09/16 11:48:18;;;;;;;8.38;2.80;;;17.20;99.90;;;;;;4856260;29;20455;-81
2021/09/16 11:50:46;;;;;;;8.15;2.60;;;17.20;99.90;;;;;;4826256;29;20194;-81
2021/09/16 11:53:19;;;;;;;8.93;3.80;;;17.30;99.90;;;;;;4855767;29;20053;-81
2021/09/16 11:56:00;;;;;;;9.55;2.80;;;17.50;99.90;;;;;;4857843;29;20064;-81
2021/09/16 11:58:32;;;;;;;10.45;2.45;;;17.60;99.90;;;;;;4855165;29;20056;-81
2021/09/16 12:01:05;;;;;;;8.27;2.53;;;17.60;99.90;;;;;;4838600;29;20056;-81
2021/09/16 12:03:34;;;;;;;7.30;2.15;;;17.70;99.90;;;;;;4856442;29;20432;-81
2021/09/16 12:06:03;;;;;;;13.43;4.15;;;17.70;99.90;;;;;;4840864;29;20121;-81
2021/09/16 12:08:39;;;;;;;10.27;3.10;;;17.70;99.90;;;;;;4840930;29;20124;-81
2021/09/16 12:11:11;;;;;;;12.75;2.92;;;17.80;99.90;;;;;;4841266;29;20038;-81
2021/09/16 12:13:40;;;;;;;11.13;2.50;;;17.80;99.90;;;;;;4840774;29;20079;-81
2021/09/16 12:16:12;;;;;;;7.35;2.40;;;17.80;99.90;;;;;;4841153;29;20384;-81
2021/09/16 12:18:41;;;;;;;6.75;2.10;;;17.80;99.90;;;;;;4839157;29;20052;-81
2021/09/16 12:21:10;;;;;;;9.20;2.20;;;17.80;99.90;;;;;;4855678;29;20506;-81
2021/09/16 12:23:37;;;;;;;7.80;2.58;;;17.80;99.90;;;;;;4856119;29;20047;-81
2021/09/16 12:26:09;;;;;;;7.28;2.10;;;17.80;99.90;;;;;;4840505;29;20050;-81
2021/09/16 12:28:53;;;;;;;7.20;2.97;;;17.80;99.90;;;;;;4855662;29;20509;-81
2021/09/16 12:31:33;;;;;;;9.18;2.33;;;18.00;99.90;;;;;;4839861;29;20491;-85
2021/09/16 12:34:03;;;;;;;7.40;2.03;;;18.10;99.90;;;;;;4840630;29;20124;-86
2021/09/16 12:36:30;;;;;;;10.35;1.95;;;17.70;99.90;;;;;;4856648;29;20525;-86
2021/09/16 12:39:10;;;;;;;5.70;2.05;;;18.30;99.90;;;;;;4856006;29;20387;-86
2021/09/16 12:41:42;;;;;;;6.70;2.00;;;18.40;99.90;;;;;;4857238;29;20414;-85
2021/09/16 12:44:15;;;;;;;5.88;1.83;;;18.40;99.90;;;;;;4855209;29;20154;-77